Time;durP1;ratioP1;P1;durP2;ratioP2;P2;SDS_P1;SDS_P2;PMS_P1;PMS_P2;Temp;Humidity;BMP_temperature;BMP_pressure;BME280_temperature;BME280_humidity;BME280_pressure;Samples;Min_cycle;Max_cycle;Signal;HPM_P1;HPM_P2
2023/10/18 00:01:26;;;;;;;7.22;4.93;;;;;;;10.02;66.94;95141.16;5032694;28;20388;-87
2023/10/18 00:03:56;;;;;;;7.47;4.70;;;;;;;10.07;66.51;95148.13;5031819;28;20044;-86
2023/10/18 00:06:23;;;;;;;8.07;4.80;;;;;;;10.15;66.40;95138.53;5016249;28;20029;-86
2023/10/18 00:08:49;;;;;;;5.78;4.32;;;;;;;10.21;66.31;95149.78;5031674;28;20025;-86
2023/10/18 00:11:15;;;;;;;5.40;4.15;;;;;;;10.23;66.24;95144.63;5015318;28;20553;-86
2023/10/18 00:13:41;;;;;;;5.15;4.35;;;;;;;10.21;66.27;95145.06;5032104;28;20750;-86
2023/10/18 00:16:07;;;;;;;6.85;4.50;;;;;;;10.27;65.98;95148.09;5031832;28;20115;-84
2023/10/18 00:18:36;;;;;;;5.97;4.80;;;;;;;10.26;66.22;95141.78;5032098;28;20546;-86
2023/10/18 00:21:06;;;;;;;5.65;4.20;;;;;;;10.27;66.48;95140.63;5024842;28;20090;-86
2023/10/18 00:23:32;;;;;;;7.65;4.35;;;;;;;10.29;66.52;95132.69;5032141;28;20021;-85
2023/10/18 00:26:08;;;;;;;5.90;4.50;;;;;;;10.35;66.29;95135.72;5031591;28;20479;-85
2023/10/18 00:28:34;;;;;;;5.97;4.00;;;;;;;10.32;66.33;95120.88;5014867;28;20077;-85
2023/10/18 00:31:10;;;;;;;5.78;4.22;;;;;;;10.35;66.31;95127.47;5014794;28;20037;-85
2023/10/18 00:33:36;;;;;;;7.00;4.93;;;;;;;10.39;66.16;95122.66;5048992;28;20039;-86
2023/10/18 00:36:02;;;;;;;6.78;4.47;;;;;;;10.36;65.70;95118.78;5032401;28;20115;-86
2023/10/18 00:38:28;;;;;;;5.10;4.38;;;;;;;10.35;66.30;95125.47;5030943;28;20036;-85
2023/10/18 00:40:56;;;;;;;3.95;3.55;;;;;;;10.35;66.03;95116.47;5031932;28;20031;-85
2023/10/18 00:43:22;;;;;;;7.13;4.20;;;;;;;10.31;66.10;95113.03;5048819;28;20032;-85
2023/10/18 00:45:54;;;;;;;4.25;3.85;;;;;;;10.35;65.72;95116.47;5049721;28;20032;-86
2023/10/18 00:48:25;;;;;;;6.93;4.30;;;;;;;10.36;65.77;95118.00;5015103;28;20419;-87
2023/10/18 00:50:54;;;;;;;5.95;3.75;;;;;;;10.33;65.84;95110.66;5031722;28;20025;-86
2023/10/18 00:53:22;;;;;;;6.90;3.72;;;;;;;10.31;65.83;95122.03;5032768;28;20021;-85
2023/10/18 00:55:57;;;;;;;5.90;3.95;;;;;;;10.29;66.00;95126.44;5014804;28;20032;-85
2023/10/18 00:58:23;;;;;;;5.78;4.05;;;;;;;10.23;66.13;95133.63;5031834;28;20048;-84
2023/10/18 01:00:50;;;;;;;6.47;3.42;;;;;;;10.14;66.25;95123.22;5036409;28;20020;-86
2023/10/18 01:03:28;;;;;;;4.97;3.92;;;;;;;10.12;66.26;95122.88;5033242;28;20377;-86
2023/10/18 01:06:08;;;;;;;5.95;3.78;;;;;;;10.04;66.57;95114.06;5016601;28;20075;-85
2023/10/18 01:08:38;;;;;;;6.93;4.38;;;;;;;10.01;66.45;95111.38;5047189;28;20021;-86
2023/10/18 01:11:07;;;;;;;5.22;4.25;;;;;;;10.00;66.34;95109.84;5032308;28;20029;-85
2023/10/18 01:13:36;;;;;;;5.85;4.57;;;;;;;9.97;66.34;95110.69;5011192;28;20034;-84
2023/10/18 01:16:06;;;;;;;8.32;4.97;;;;;;;9.96;66.28;95120.13;5048292;28;20132;-85
2023/10/18 01:18:31;;;;;;;8.70;4.88;;;;;;;9.85;66.96;95109.41;5030322;28;20409;-85
2023/10/18 01:20:56;;;;;;;8.18;4.70;;;;;;;9.88;66.93;95113.28;5048579;28;20029;-84
2023/10/18 01:23:22;;;;;;;8.10;5.32;;;;;;;9.87;67.55;95112.50;5030679;28;20040;-85
2023/10/18 01:25:48;;;;;;;6.30;4.30;;;;;;;9.92;67.67;95117.50;5029169;28;20033;-85
2023/10/18 01:28:13;;;;;;;7.82;5.15;;;;;;;9.95;67.59;95113.09;5030834;28;20027;-85
2023/10/18 01:30:38;;;;;;;5.63;4.35;;;;;;;10.00;67.33;95101.59;5028963;28;20029;-84
2023/10/18 01:33:04;;;;;;;6.85;5.18;;;;;;;9.95;67.15;95111.13;5030654;28;20036;-85
2023/10/18 01:35:31;;;;;;;8.35;5.18;;;;;;;9.92;67.30;95116.69;5029241;28;20044;-85
2023/10/18 01:37:57;;;;;;;7.90;5.28;;;;;;;9.95;67.30;95122.09;5048071;28;20035;-85
2023/10/18 01:42:56;;;;;;;7.88;4.90;;;;;;;10.07;67.37;95115.94;5030409;28;20033;-84
2023/10/18 01:45:22;;;;;;;8.00;5.47;;;;;;;10.08;67.37;95114.72;5030475;28;20078;-85
2023/10/18 01:47:49;;;;;;;6.88;5.25;;;;;;;10.09;67.34;95118.25;5009276;28;20037;-85
2023/10/18 01:50:15;;;;;;;5.97;4.57;;;;;;;10.13;67.34;95123.66;5029894;28;20128;-86
2023/10/18 01:52:42;;;;;;;5.47;4.43;;;;;;;10.19;67.34;95124.69;5029261;28;20510;-84
2023/10/18 01:55:09;;;;;;;8.02;4.70;;;;;;;10.21;67.43;95125.06;5013497;28;20033;-85
2023/10/18 01:57:35;;;;;;;6.30;4.63;;;;;;;10.24;67.54;95118.72;5047268;28;20116;-84
2023/10/18 02:00:00;;;;;;;7.55;5.32;;;;;;;10.30;67.17;95119.72;5029927;28;20108;-86
2023/10/18 02:02:26;;;;;;;6.13;4.72;;;;;;;10.27;67.32;95121.38;5030620;28;20029;-86
2023/10/18 02:04:53;;;;;;;6.75;5.18;;;;;;;10.32;67.07;95120.06;5029066;28;20029;-86
2023/10/18 02:07:19;;;;;;;7.13;5.28;;;;;;;10.33;67.08;95119.66;5014405;28;20079;-85
2023/10/18 02:09:48;;;;;;;8.38;5.60;;;;;;;10.33;67.00;95116.91;5029446;28;20458;-86
2023/10/18 02:12:18;;;;;;;6.63;4.95;;;;;;;10.36;66.97;95138.03;5030614;28;20052;-84
2023/10/18 02:14:45;;;;;;;6.40;5.60;;;;;;;10.35;67.00;95125.47;5013460;28;20017;-86
2023/10/18 02:17:10;;;;;;;7.25;5.15;;;;;;;10.39;66.72;95125.41;5009858;28;20021;-85
2023/10/18 02:19:37;;;;;;;6.18;4.75;;;;;;;10.40;66.68;95124.19;5007261;28;20075;-85
2023/10/18 02:22:08;;;;;;;7.75;4.50;;;;;;;10.41;66.74;95125.75;5009368;28;20017;-86
2023/10/18 02:24:34;;;;;;;6.38;4.97;;;;;;;10.44;66.85;95119.41;5018627;28;20025;-85
2023/10/18 02:27:00;;;;;;;6.10;5.05;;;;;;;10.47;66.52;95120.50;5028268;28;20032;-86
2023/10/18 02:29:27;;;;;;;6.60;4.78;;;;;;;10.48;66.50;95120.06;5029499;28;20024;-85
2023/10/18 02:31:57;;;;;;;6.85;4.78;;;;;;;10.47;66.51;95121.25;5028496;28;20422;-84
2023/10/18 02:34:25;;;;;;;8.23;5.32;;;;;;;10.48;66.74;95122.81;5000679;28;20042;-84
2023/10/18 02:36:52;;;;;;;5.65;4.68;;;;;;;10.35;66.46;95105.47;5011973;28;20040;-84
2023/10/18 02:39:27;;;;;;;5.93;4.43;;;;;;;10.48;66.39;95116.53;5011965;28;20482;-85
2023/10/18 02:41:55;;;;;;;6.05;4.55;;;;;;;10.49;66.23;95116.09;5030240;28;20467;-86
2023/10/18 02:44:24;;;;;;;5.43;4.28;;;;;;;10.50;66.57;95114.16;5012865;28;20526;-87
2023/10/18 02:46:54;;;;;;;9.25;5.05;;;;;;;10.53;66.16;95116.00;5009930;28;20033;-87
2023/10/18 02:49:23;;;;;;;5.18;4.53;;;;;;;10.48;66.49;95113.78;5009793;28;20494;-86
2023/10/18 02:51:50;;;;;;;6.90;4.85;;;;;;;10.44;66.79;95110.38;5026688;28;20087;-85
2023/10/18 02:56:50;;;;;;;7.57;5.22;;;;;;;10.43;66.84;95111.56;5025235;28;20127;-87
2023/10/18 02:59:18;;;;;;;6.65;5.07;;;;;;;10.43;66.56;95109.56;5032020;28;20040;-87
2023/10/18 03:01:44;;;;;;;6.70;5.43;;;;;;;10.40;66.74;95107.72;5028904;28;20094;-86
2023/10/18 03:04:16;;;;;;;7.72;6.10;;;;;;;10.42;66.67;95104.53;5029158;28;20512;-86
2023/10/18 03:06:42;;;;;;;9.27;5.95;;;;;;;10.42;66.72;95113.53;5030128;28;20033;-87
2023/10/18 03:09:25;;;;;;;7.45;5.72;;;;;;;10.42;66.72;95110.78;5011188;28;20034;-86
2023/10/18 03:11:53;;;;;;;9.43;6.60;;;;;;;10.42;66.63;95112.78;5028033;28;20390;-87
2023/10/18 03:14:19;;;;;;;9.13;6.55;;;;;;;10.39;66.50;95100.69;5028926;28;20029;-86
2023/10/18 03:16:46;;;;;;;6.90;5.68;;;;;;;10.41;66.48;95100.22;5029396;28;20037;-86
2023/10/18 03:19:12;;;;;;;8.02;5.97;;;;;;;10.41;66.53;95100.22;5028585;28;20032;-87
2023/10/18 03:21:43;;;;;;;8.20;6.10;;;;;;;10.44;66.17;95096.63;5032413;28;20415;-86
2023/10/18 03:24:12;;;;;;;10.02;6.60;;;;;;;10.40;66.36;95110.47;5011330;28;20124;-85
2023/10/18 03:26:37;;;;;;;7.90;5.68;;;;;;;10.37;66.66;95111.31;5022254;28;20029;-87
2023/10/18 03:29:11;;;;;;;7.82;5.63;;;;;;;10.39;66.51;95102.66;5032974;28;20407;-85
2023/10/18 03:31:44;;;;;;;7.95;6.18;;;;;;;10.36;66.75;95098.78;5013131;28;20029;-84
2023/10/18 03:34:19;;;;;;;8.13;6.63;;;;;;;10.36;66.78;95096.78;5026493;28;20084;-85
2023/10/18 03:36:49;;;;;;;11.30;6.60;;;;;;;10.39;66.83;95091.66;5033173;28;20101;-85
2023/10/18 03:39:19;;;;;;;9.85;6.22;;;;;;;10.39;66.67;95094.41;5031985;28;20033;-84
2023/10/18 03:41:53;;;;;;;9.00;6.32;;;;;;;10.40;66.92;95085.72;5024478;28;20041;-85
2023/10/18 03:44:22;;;;;;;7.97;6.72;;;;;;;10.42;66.58;95080.56;5034341;28;20044;-85
2023/10/18 03:46:48;;;;;;;14.35;7.03;;;;;;;10.41;66.48;95089.25;5029431;28;20025;-88
2023/10/18 03:51:56;;;;;;;10.48;6.75;;;;;;;10.44;66.15;95088.38;5023132;28;20037;-85
2023/10/18 03:54:27;;;;;;;9.18;6.60;;;;;;;10.41;66.22;95101.00;5026131;28;20029;-85
2023/10/18 03:56:53;;;;;;;9.70;6.22;;;;;;;10.39;66.17;95097.16;5037011;28;20577;-86
2023/10/18 03:59:21;;;;;;;9.13;6.47;;;;;;;10.44;65.92;95082.91;5026246;28;20559;-85
2023/10/18 04:04:36;;;;;;;7.15;5.88;;;;;;;10.47;65.80;95082.00;5044236;28;20040;-86
2023/10/18 04:07:20;;;;;;;8.90;6.57;;;;;;;10.45;65.93;95087.19;5038985;28;20028;-86
2023/10/18 04:10:06;;;;;;;;;;;;;;;10.48;66.17;95089.06;5019180;28;20120;-86
2023/10/18 04:12:32;;;;;;;10.15;6.40;;;;;;;10.42;66.21;95075.06;5035074;28;20023;-86
2023/10/18 04:14:58;;;;;;;9.15;6.95;;;;;;;10.43;66.36;95073.09;5036864;28;20046;-86
2023/10/18 04:20:01;;;;;;;9.40;6.72;;;;;;;10.47;66.10;95080.03;5031869;28;20037;-85
2023/10/18 04:22:30;;;;;;;8.90;6.70;;;;;;;10.47;66.00;95084.75;5031517;28;20029;-86
2023/10/18 04:24:56;;;;;;;7.63;6.75;;;;;;;10.46;66.09;95080.47;4999663;28;20025;-86
2023/10/18 04:27:23;;;;;;;9.10;6.68;;;;;;;10.45;66.25;95073.44;5020782;28;20036;-84
2023/10/18 04:29:49;;;;;;;8.10;6.20;;;;;;;10.48;66.25;95078.81;5031129;28;20029;-86
2023/10/18 04:32:18;;;;;;;7.80;6.25;;;;;;;10.47;66.18;95080.03;5046761;28;20025;-87
2023/10/18 04:34:44;;;;;;;10.18;6.57;;;;;;;10.46;66.24;95092.25;5048481;28;20364;-85
2023/10/18 04:37:12;;;;;;;9.43;6.80;;;;;;;10.44;66.38;95077.41;5047831;28;20033;-86
2023/10/18 04:39:38;;;;;;;7.28;6.35;;;;;;;10.43;66.26;95089.56;5030800;28;20062;-86
2023/10/18 04:42:08;;;;;;;7.85;6.13;;;;;;;10.44;66.37;95086.41;5048839;28;20025;-86
2023/10/18 04:44:37;;;;;;;9.98;5.82;;;;;;;10.45;66.17;95079.72;5048010;28;20098;-87
2023/10/18 04:47:14;;;;;;;7.63;5.88;;;;;;;10.44;66.06;95082.91;5007562;28;20503;-85
2023/10/18 04:49:43;;;;;;;7.05;6.07;;;;;;;10.46;66.21;95083.22;5020847;28;20499;-85
2023/10/18 04:52:09;;;;;;;7.15;5.97;;;;;;;10.39;66.23;95081.44;5047815;28;20036;-86
2023/10/18 04:54:38;;;;;;;7.72;5.97;;;;;;;10.43;66.19;95097.81;5013028;28;20032;-86
2023/10/18 04:57:13;;;;;;;9.30;6.40;;;;;;;10.37;66.31;95101.09;5030133;28;20025;-83
2023/10/18 04:59:45;;;;;;;6.50;5.57;;;;;;;10.39;66.35;95108.16;5029504;28;20017;-79
2023/10/18 05:02:17;;;;;;;7.50;6.22;;;;;;;10.36;66.55;95113.28;5027650;28;20028;-79
2023/10/18 05:04:42;;;;;;;8.25;6.38;;;;;;;10.36;66.37;95109.78;5029890;28;20021;-80
2023/10/18 05:09:42;;;;;;;8.70;6.05;;;;;;;10.38;66.17;95123.88;5030227;28;20408;-86
2023/10/18 05:14:42;;;;;;;6.63;5.65;;;;;;;10.42;66.30;95134.75;5038738;28;20033;-86
2023/10/18 05:17:17;;;;;;;8.38;6.38;;;;;;;10.42;66.36;95135.53;5030710;28;20076;-87
2023/10/18 05:19:42;;;;;;;8.65;5.97;;;;;;;10.44;66.23;95137.88;5030219;28;20513;-86
2023/10/18 05:22:09;;;;;;;8.60;6.85;;;;;;;10.49;66.02;95151.06;5030436;28;20040;-86
2023/10/18 05:24:37;;;;;;;9.75;6.47;;;;;;;10.48;66.02;95152.25;5029395;28;20044;-87
2023/10/18 05:27:24;;;;;;;8.32;6.30;;;;;;;10.48;65.99;95166.00;5009190;28;20079;-87
2023/10/18 05:29:58;;;;;;;11.05;7.40;;;;;;;10.48;65.80;95163.25;5039342;28;20036;-86
2023/10/18 05:32:39;;;;;;;12.25;8.05;;;;;;;10.58;65.77;95171.25;5030148;28;20384;-86
2023/10/18 05:38:48;;;;;;;9.63;7.35;;;;;;;10.61;65.95;95166.88;5022229;28;20064;-86
2023/10/18 05:43:23;;;;;;;12.00;7.38;;;;;;;10.60;65.92;95162.56;5047746;28;20120;-86
2023/10/18 05:45:50;;;;;;;6.60;5.30;;;;;;;10.67;65.28;95151.41;5017572;28;20039;-86
2023/10/18 05:48:22;;;;;;;6.85;4.95;;;;;;;10.52;65.09;95156.47;5002871;28;20033;-86
2023/10/18 05:51:02;;;;;;;7.23;5.27;;;;;;;10.49;65.43;95148.31;5030473;28;20029;-87
2023/10/18 05:53:28;;;;;;;8.27;4.93;;;;;;;10.59;65.05;95150.78;5007435;28;20276;-86
2023/10/18 05:55:54;;;;;;;9.07;5.30;;;;;;;10.55;64.76;95143.84;5013364;28;20499;-87
2023/10/18 05:58:26;;;;;;;5.45;4.65;;;;;;;10.45;65.29;95144.91;5029045;28;20123;-86
2023/10/18 06:00:58;;;;;;;5.22;4.40;;;;;;;10.41;65.37;95152.44;5030725;28;20061;-87
2023/10/18 06:03:25;;;;;;;6.75;4.78;;;;;;;10.35;65.24;95150.22;5029189;28;20060;-86
2023/10/18 06:05:51;;;;;;;8.73;4.93;;;;;;;10.26;65.68;95150.03;5030042;28;20028;-87
2023/10/18 06:08:22;;;;;;;7.53;4.95;;;;;;;10.28;65.57;95153.16;5031375;28;20025;-86
2023/10/18 06:10:49;;;;;;;9.70;5.90;;;;;;;10.17;65.68;95143.59;5028689;28;20171;-86
2023/10/18 06:13:20;;;;;;;7.97;5.03;;;;;;;10.31;65.54;95157.75;5028171;28;20100;-82
2023/10/18 06:15:50;;;;;;;9.88;7.15;;;;;;;10.29;65.59;95156.66;5011565;28;20044;-84
2023/10/18 06:18:25;;;;;;;5.70;5.00;;;;;;;10.33;65.73;95160.09;5029901;28;20029;-86
2023/10/18 06:20:53;;;;;;;6.25;5.13;;;;;;;10.30;65.85;95156.22;5011576;28;20124;-84
2023/10/18 06:25:50;;;;;;;6.40;4.57;;;;;;;10.44;64.63;95176.34;5028281;28;20115;-86
2023/10/18 06:28:21;;;;;;;7.25;5.18;;;;;;;10.37;65.48;95166.28;5028294;28;20128;-86
2023/10/18 06:30:56;;;;;;;7.40;5.13;;;;;;;10.43;65.54;95172.03;5012374;28;20037;-84
2023/10/18 06:33:22;;;;;;;7.03;4.78;;;;;;;10.52;65.63;95183.19;5027056;28;20068;-81
2023/10/18 06:35:51;;;;;;;7.03;5.13;;;;;;;10.59;65.51;95177.50;5027357;28;20123;-83
2023/10/18 06:38:23;;;;;;;7.30;4.80;;;;;;;10.72;65.32;95177.59;5029197;28;20334;-82
2023/10/18 06:40:53;;;;;;;6.90;5.18;;;;;;;10.86;64.87;95180.75;5012897;28;20057;-87
2023/10/18 06:43:23;;;;;;;11.35;5.38;;;;;;;10.92;64.52;95181.00;5030488;28;20640;-87
2023/10/18 06:45:50;;;;;;;9.05;4.90;;;;;;;11.04;63.90;95180.28;5015385;28;20029;-86
2023/10/18 06:48:16;;;;;;;5.85;4.07;;;;;;;11.11;63.58;95177.31;5013305;28;20128;-86
2023/10/18 06:50:46;;;;;;;5.50;4.38;;;;;;;11.23;63.21;95175.81;5028301;28;20049;-85
2023/10/18 06:53:15;;;;;;;6.82;4.38;;;;;;;11.30;62.79;95181.16;5013010;28;20124;-85
2023/10/18 06:58:15;;;;;;;5.38;4.15;;;;;;;11.37;62.36;95172.69;5032238;28;20029;-86
2023/10/18 07:00:46;;;;;;;5.40;4.40;;;;;;;11.48;61.71;95177.13;5015288;28;20029;-75
2023/10/18 07:03:17;;;;;;;6.60;4.68;;;;;;;11.51;61.71;95185.28;5032368;28;20052;-85
2023/10/18 07:05:55;;;;;;;5.30;4.25;;;;;;;11.57;61.79;95182.75;5010872;28;20044;-82
2023/10/18 07:08:33;;;;;;;5.80;4.50;;;;;;;11.66;61.38;95189.16;5033242;28;20032;-86
2023/10/18 07:11:02;;;;;;;7.18;4.65;;;;;;;11.72;61.10;95183.91;5033960;28;20114;-83
2023/10/18 07:13:42;;;;;;;7.25;4.90;;;;;;;11.73;61.31;95192.94;5049605;28;20074;-85
2023/10/18 07:16:18;;;;;;;10.73;6.97;;;;;;;11.81;61.29;95191.50;5013447;28;20087;-82
2023/10/18 07:18:44;;;;;;;8.63;5.47;;;;;;;11.82;61.15;95187.59;5013730;28;20096;-80
2023/10/18 07:21:11;;;;;;;7.75;4.97;;;;;;;11.93;60.92;95193.56;5009413;28;20495;-83
2023/10/18 07:23:37;;;;;;;5.40;4.47;;;;;;;11.98;60.73;95192.97;5000769;28;20029;-80
2023/10/18 07:26:21;;;;;;;5.22;4.20;;;;;;;12.05;60.41;95184.53;5023265;28;20035;-78
2023/10/18 07:28:47;;;;;;;7.85;4.97;;;;;;;12.11;60.18;95187.50;5029279;28;20507;-78
2023/10/18 07:31:17;;;;;;;6.20;5.18;;;;;;;12.15;60.25;95186.16;5030937;28;20100;-83
2023/10/18 07:33:43;;;;;;;5.50;4.50;;;;;;;12.24;59.85;95185.50;5029947;28;20476;-84
2023/10/18 07:36:11;;;;;;;6.05;4.40;;;;;;;12.38;59.62;95178.75;5015156;28;20155;-86
2023/10/18 07:38:38;;;;;;;6.90;5.05;;;;;;;12.43;59.04;95178.22;5031751;28;20049;-87
2023/10/18 07:41:07;;;;;;;7.65;4.70;;;;;;;12.49;58.84;95179.97;5049723;28;20033;-87
2023/10/18 07:43:35;;;;;;;5.43;4.55;;;;;;;12.61;58.89;95186.66;5032090;28;20476;-86
2023/10/18 07:46:09;;;;;;;6.43;4.57;;;;;;;12.61;58.66;95183.13;5049614;28;20044;-87
2023/10/18 07:48:38;;;;;;;6.35;4.35;;;;;;;12.69;57.96;95174.19;5016697;28;20029;-87
2023/10/18 07:51:21;;;;;;;5.18;4.10;;;;;;;12.69;57.69;95171.44;5014539;28;20033;-87
2023/10/18 07:53:48;;;;;;;8.45;4.93;;;;;;;12.76;58.06;95167.66;5034617;28;20025;-87
2023/10/18 07:56:16;;;;;;;6.60;5.05;;;;;;;12.84;57.85;95166.19;5015361;28;20033;-88
2023/10/18 07:58:48;;;;;;;6.40;4.32;;;;;;;12.97;57.65;95166.94;5032706;28;20465;-86
2023/10/18 08:01:14;;;;;;;5.63;4.30;;;;;;;12.93;56.63;95160.00;5032385;28;20035;-86
2023/10/18 08:03:42;;;;;;;6.60;3.92;;;;;;;12.99;56.95;95180.28;5031328;28;20041;-87
2023/10/18 08:06:26;;;;;;;7.18;4.82;;;;;;;13.06;57.00;95179.28;5031760;28;20500;-87
2023/10/18 08:08:51;;;;;;;6.22;4.43;;;;;;;13.06;56.34;95177.28;5033429;28;20033;-87
2023/10/18 08:11:16;;;;;;;6.57;4.60;;;;;;;13.12;56.64;95175.50;5049803;28;20025;-88
2023/10/18 08:13:45;;;;;;;5.72;4.50;;;;;;;13.26;56.03;95182.56;5031365;28;20112;-87
2023/10/18 08:16:19;;;;;;;5.97;4.05;;;;;;;13.20;55.01;95176.81;5031940;28;20526;-87
2023/10/18 08:18:52;;;;;;;5.90;4.38;;;;;;;13.29;55.25;95182.41;5016536;28;20407;-87
2023/10/18 08:21:37;;;;;;;6.15;4.25;;;;;;;13.34;55.16;95185.81;5012134;28;20036;-87
2023/10/18 08:27:09;;;;;;;6.10;4.18;;;;;;;13.51;54.59;95181.66;4983927;28;20068;-87
2023/10/18 08:29:34;;;;;;;;;;;;;;;13.53;54.73;95195.78;5015868;28;20028;-87
2023/10/18 08:32:06;;;;;;;5.75;4.03;;;;;;;13.37;53.79;95184.94;5035725;28;19923;-87
2023/10/18 08:34:31;;;;;;;6.38;4.35;;;;;;;13.34;53.89;95186.59;5050466;28;20045;-87
2023/10/18 08:37:04;;;;;;;6.57;4.35;;;;;;;13.35;54.10;95188.13;5031576;28;20086;-86
2023/10/18 08:39:30;;;;;;;5.80;3.95;;;;;;;13.43;54.30;95189.44;5032280;28;20067;-86
2023/10/18 08:42:12;;;;;;;5.78;4.45;;;;;;;13.54;54.70;95194.56;5031234;28;20021;-85
2023/10/18 08:44:40;;;;;;;4.97;3.95;;;;;;;13.70;54.66;95191.59;5048489;28;20036;-88
2023/10/18 08:49:50;;;;;;;9.55;4.32;;;;;;;13.72;53.29;95196.69;5048701;28;20032;-87
2023/10/18 08:52:20;;;;;;;5.05;4.03;;;;;;;13.76;52.91;95200.06;5030193;28;20025;-86
2023/10/18 08:54:46;;;;;;;7.40;4.00;;;;;;;13.86;53.26;95198.13;5030933;28;20032;-87
2023/10/18 08:57:15;;;;;;;6.07;3.92;;;;;;;13.94;53.26;95196.66;5029677;28;20490;-87
2023/10/18 08:59:46;;;;;;;6.80;5.18;;;;;;;14.05;53.09;95203.31;5029856;28;20029;-85
2023/10/18 09:02:17;;;;;;;8.73;6.45;;;;;;;14.16;53.29;95193.84;5030799;28;20055;-87
2023/10/18 09:04:44;;;;;;;5.65;4.63;;;;;;;14.31;52.58;95205.88;5030253;28;20155;-87
2023/10/18 09:07:22;;;;;;;6.25;4.63;;;;;;;14.28;52.66;95202.06;5013249;28;20032;-87
2023/10/18 09:09:53;;;;;;;6.70;4.47;;;;;;;14.33;52.27;95203.44;5014488;28;20075;-85
2023/10/18 09:12:37;;;;;;;7.68;4.28;;;;;;;14.30;52.49;95196.06;5029859;28;20074;-87
2023/10/18 09:17:56;;;;;;;5.43;4.00;;;;;;;14.38;52.10;95211.13;5031438;28;20063;-86
2023/10/18 09:20:26;;;;;;;6.63;4.43;;;;;;;14.42;52.16;95213.78;5013244;28;20025;-85
2023/10/18 09:22:54;;;;;;;6.55;4.90;;;;;;;14.40;52.42;95219.00;5028829;28;20094;-86
2023/10/18 09:25:24;;;;;;;6.78;4.63;;;;;;;14.47;52.32;95222.28;5029117;28;20132;-86
2023/10/18 09:27:51;;;;;;;5.65;3.65;;;;;;;14.50;52.13;95213.06;5047050;28;20025;-86
2023/10/18 09:30:20;;;;;;;6.25;4.32;;;;;;;14.54;51.74;95212.91;5028993;28;20120;-86
2023/10/18 09:32:46;;;;;;;5.50;4.05;;;;;;;14.55;52.10;95211.69;5013940;28;20039;-86
2023/10/18 09:35:13;;;;;;;5.90;4.63;;;;;;;14.60;51.41;95200.03;5046412;28;20133;-86
2023/10/18 09:37:39;;;;;;;6.25;4.43;;;;;;;14.55;50.90;95195.84;5029481;28;20103;-86
2023/10/18 09:40:05;;;;;;;7.03;4.95;;;;;;;14.54;51.21;95194.31;5028535;28;20103;-85
2023/10/18 09:42:30;;;;;;;8.52;5.03;;;;;;;14.47;51.20;95191.84;5012297;28;20036;-86
2023/10/18 09:44:56;;;;;;;6.45;4.75;;;;;;;14.54;51.46;95197.09;5028880;28;20036;-86
2023/10/18 09:47:26;;;;;;;5.80;4.78;;;;;;;14.54;51.20;95196.31;5028722;28;20039;-86
2023/10/18 09:49:54;;;;;;;7.40;5.10;;;;;;;14.34;51.47;95186.41;5029102;28;20035;-85
2023/10/18 09:52:30;;;;;;;6.63;4.63;;;;;;;14.35;51.86;95176.88;5028542;28;20028;-86
2023/10/18 09:55:00;;;;;;;5.13;4.25;;;;;;;14.23;51.43;95177.75;5047183;28;20474;-86
2023/10/18 09:57:33;;;;;;;5.15;4.57;;;;;;;14.32;51.72;95177.00;5027983;28;20025;-86
2023/10/18 10:00:01;;;;;;;6.35;4.45;;;;;;;14.40;51.48;95172.75;5029715;28;20021;-86
2023/10/18 10:02:27;;;;;;;7.43;5.25;;;;;;;14.37;51.61;95172.88;5029001;28;20107;-86
2023/10/18 10:04:54;;;;;;;5.15;4.55;;;;;;;14.46;51.76;95167.38;5028632;28;20511;-88
2023/10/18 10:07:39;;;;;;;6.57;5.05;;;;;;;14.53;51.15;95164.34;5012418;28;20115;-86
2023/10/18 10:10:17;;;;;;;6.38;4.93;;;;;;;14.46;50.88;95156.31;5031146;28;20025;-86
2023/10/18 10:12:44;;;;;;;7.05;5.47;;;;;;;14.46;51.31;95154.31;5029888;28;20094;-85
2023/10/18 10:15:17;;;;;;;9.48;5.88;;;;;;;14.43;51.55;95152.47;5012039;28;20029;-85
2023/10/18 10:17:55;;;;;;;5.90;5.13;;;;;;;14.45;51.56;95150.03;5029411;28;20040;-85
2023/10/18 10:20:21;;;;;;;6.82;4.57;;;;;;;14.53;51.98;95150.53;5029570;28;20044;-85
2023/10/18 10:22:48;;;;;;;7.18;4.97;;;;;;;14.64;51.67;95158.41;5028296;28;20035;-85
2023/10/18 10:25:31;;;;;;;6.88;5.03;;;;;;;14.75;51.22;95145.66;5030568;28;20032;-85
2023/10/18 10:27:59;;;;;;;6.65;4.50;;;;;;;14.68;50.43;95137.66;5016197;28;20036;-86
2023/10/18 10:30:34;;;;;;;6.43;4.88;;;;;;;14.78;50.73;95143.97;5032694;28;20431;-85
2023/10/18 10:33:02;;;;;;;7.50;5.43;;;;;;;14.80;50.38;95138.75;5032952;28;20036;-85
2023/10/18 10:35:32;;;;;;;6.80;4.90;;;;;;;14.86;50.37;95145.97;5032571;28;20073;-85
2023/10/18 10:38:01;;;;;;;7.80;5.75;;;;;;;14.78;50.44;95144.72;5033652;28;20363;-85
2023/10/18 10:43:11;;;;;;;7.25;5.13;;;;;;;14.74;50.55;95137.81;5032998;28;20028;-85
2023/10/18 10:45:41;;;;;;;6.25;4.80;;;;;;;14.76;50.79;95140.88;5016116;28;20365;-86
2023/10/18 10:48:37;;;;;;;8.40;4.63;;;;;;;14.74;51.01;95148.88;5032564;28;20029;-87
2023/10/18 10:51:16;;;;;;;6.97;5.05;;;;;;;14.76;51.10;95144.41;5014222;28;20040;-86
2023/10/18 10:53:45;;;;;;;8.40;4.95;;;;;;;14.72;51.53;95146.56;5049414;28;20028;-84
2023/10/18 10:56:30;;;;;;;5.95;4.38;;;;;;;14.71;51.49;95145.03;5031736;28;20044;-86
2023/10/18 11:04:24;;;;;;;7.15;4.68;;;;;;;14.74;51.17;95137.81;5050111;28;20031;-87
2023/10/18 11:06:57;;;;;;;6.07;5.13;;;;;;;14.72;51.64;95135.50;5048973;28;20029;-87
2023/10/18 11:09:34;;;;;;;7.63;5.45;;;;;;;14.61;51.85;95132.41;5015892;28;20052;-86
2023/10/18 11:12:08;;;;;;;6.80;5.57;;;;;;;14.27;52.37;95138.88;5032042;28;20037;-86
2023/10/18 11:14:36;;;;;;;7.75;5.18;;;;;;;14.26;52.75;95142.88;5031454;28;20037;-86
2023/10/18 11:19:58;;;;;;;6.70;5.10;;;;;;;14.13;53.02;95143.00;5032785;28;20048;-85
2023/10/18 11:22:24;;;;;;;7.32;5.00;;;;;;;14.12;53.23;95135.94;5032914;28;20028;-86
2023/10/18 11:24:51;;;;;;;7.05;4.97;;;;;;;14.26;53.34;95132.59;5031762;28;20510;-86
2023/10/18 11:27:33;;;;;;;5.65;4.78;;;;;;;14.23;53.22;95133.50;5031288;28;20483;-86
2023/10/18 11:30:15;;;;;;;6.47;4.90;;;;;;;14.26;53.04;95131.81;5016000;28;20039;-86
2023/10/18 11:32:43;;;;;;;6.15;5.40;;;;;;;14.28;53.18;95132.16;5016155;28;20036;-86
2023/10/18 11:35:09;;;;;;;6.15;4.82;;;;;;;14.34;52.45;95133.09;5014451;28;20045;-84
2023/10/18 11:37:38;;;;;;;7.55;4.93;;;;;;;14.27;52.91;95128.59;5014221;28;20045;-86
2023/10/18 11:40:21;;;;;;;6.30;4.53;;;;;;;14.26;53.05;95126.28;5030925;28;20082;-86
2023/10/18 11:43:05;;;;;;;6.55;4.68;;;;;;;14.23;52.88;95122.47;5048702;28;20029;-86
2023/10/18 11:45:31;;;;;;;7.82;5.10;;;;;;;14.16;53.21;95116.41;5015312;28;20487;-85
2023/10/18 11:47:59;;;;;;;8.18;5.25;;;;;;;14.09;53.60;95112.72;5031410;28;20040;-86
2023/10/18 11:50:55;;;;;;;7.78;5.28;;;;;;;14.11;53.69;95115.06;5031204;28;20021;-86
2023/10/18 11:53:24;;;;;;;6.75;4.97;;;;;;;14.17;53.69;95110.47;5030827;28;20475;-83
2023/10/18 11:56:00;;;;;;;7.65;5.25;;;;;;;14.26;53.49;95115.22;5030772;28;20523;-84
2023/10/18 11:58:27;;;;;;;6.53;4.72;;;;;;;14.38;53.35;95111.56;5030617;28;20032;-86
2023/10/18 12:01:05;;;;;;;4.97;4.20;;;;;;;14.45;53.08;95116.03;5030721;28;20029;-84
2023/10/18 12:03:33;;;;;;;6.60;5.18;;;;;;;14.44;52.94;95120.81;5032128;28;20064;-86
2023/10/18 12:06:00;;;;;;;8.15;5.40;;;;;;;14.47;53.18;95119.94;5048262;28;20480;-86
2023/10/18 12:08:30;;;;;;;7.70;5.25;;;;;;;14.55;52.64;95117.63;5030943;28;20044;-86
2023/10/18 12:10:56;;;;;;;8.15;5.40;;;;;;;14.51;52.82;95117.03;5030848;28;20048;-84
2023/10/18 12:13:21;;;;;;;7.90;5.95;;;;;;;14.53;52.83;95117.34;5031632;28;20029;-86
2023/10/18 12:15:47;;;;;;;7.65;5.82;;;;;;;14.54;52.63;95121.63;5047880;28;20068;-86
2023/10/18 12:18:14;;;;;;;7.65;5.20;;;;;;;14.57;52.62;95124.25;5014284;28;20035;-86
2023/10/18 12:20:43;;;;;;;6.25;4.72;;;;;;;14.54;52.52;95130.69;5032330;28;20052;-86
2023/10/18 12:23:21;;;;;;;7.80;5.30;;;;;;;14.52;52.44;95124.88;5034363;28;20017;-85
2023/10/18 12:25:47;;;;;;;6.63;4.82;;;;;;;14.38;52.83;95119.88;5032736;28;20025;-86
2023/10/18 12:28:15;;;;;;;6.43;5.18;;;;;;;14.47;52.82;95130.22;5013869;28;20029;-86
2023/10/18 12:30:45;;;;;;;8.60;5.25;;;;;;;14.55;52.72;95123.16;5030625;28;20044;-85
2023/10/18 12:33:33;;;;;;;8.75;5.43;;;;;;;14.55;52.67;95123.94;5013561;28;20032;-85
2023/10/18 12:36:00;;;;;;;7.75;5.10;;;;;;;14.59;52.63;95119.03;5016183;28;20553;-86